createdAt,value
2023-04-18T00:02:48.353Z,19.55
2023-04-18T00:07:52.804Z,19.27
2023-04-18T00:12:58.379Z,20.15
2023-04-18T00:18:06.174Z,19.83
2023-04-18T00:23:13.908Z,19.58
2023-04-18T00:28:18.626Z,19.52
2023-04-18T00:33:21.999Z,19.98
2023-04-18T00:38:25.412Z,20.42
2023-04-18T00:43:30.492Z,19.42
2023-04-18T00:48:33.903Z,19.55
2023-04-18T00:53:37.830Z,21.02
2023-04-18T00:58:42.737Z,22.15
2023-04-18T01:03:46.335Z,19.63
2023-04-18T01:08:49.827Z,19.90
2023-04-18T01:14:01.810Z,19.45
2023-04-18T01:19:06.162Z,21.30
2023-04-18T01:24:12.745Z,20.90
2023-04-18T01:29:16.484Z,21.02
2023-04-18T01:34:20.365Z,20.67
2023-04-18T01:39:25.077Z,19.92
2023-04-18T01:44:28.758Z,21.13
2023-04-18T01:49:32.377Z,20.85
2023-04-18T01:54:37.096Z,20.63
2023-04-18T01:59:40.814Z,20.10
2023-04-18T02:04:44.573Z,19.42
2023-04-18T02:09:49.417Z,18.77
2023-04-18T02:14:54.176Z,19.58
2023-04-18T02:19:57.710Z,18.42
2023-04-18T02:25:02.475Z,17.85
2023-04-18T02:30:06.795Z,19.02
2023-04-18T02:35:11.350Z,18.27
2023-04-18T02:40:16.514Z,18.60
2023-04-18T02:45:19.978Z,17.88
2023-04-18T02:50:23.383Z,19.17
2023-04-18T02:55:28.161Z,17.75
2023-04-18T03:00:31.884Z,17.73
2023-04-18T03:05:35.858Z,19.52
2023-04-18T03:10:41.069Z,17.63
2023-04-18T03:15:44.656Z,17.75
2023-04-18T03:20:48.057Z,18.40
2023-04-18T03:25:52.895Z,18.25
2023-04-18T03:30:56.280Z,17.90
2023-04-18T03:36:00.159Z,18.23
2023-04-18T03:41:05.232Z,16.92
2023-04-18T03:46:08.956Z,18.23
2023-04-18T03:51:12.370Z,18.15
2023-04-18T03:56:17.188Z,18.23
2023-04-18T04:01:20.747Z,19.17
2023-04-18T04:06:24.685Z,18.73
2023-04-18T04:11:29.505Z,17.65
2023-04-18T04:16:33.131Z,18.77
2023-04-18T04:21:36.807Z,20.83
2023-04-18T04:26:42.763Z,20.85
2023-04-18T04:31:46.947Z,21.95
2023-04-18T04:36:51.248Z,21.30
2023-04-18T04:41:57.773Z,22.52
2023-04-18T04:47:01.510Z,21.27
2023-04-18T04:52:04.964Z,22.05
2023-04-18T04:57:09.735Z,22.67
2023-04-18T05:02:13.187Z,22.70
2023-04-18T05:07:17.293Z,21.42
2023-04-18T05:12:22.068Z,21.25
2023-04-18T05:17:25.549Z,20.77
2023-04-18T05:22:28.978Z,20.13
2023-04-18T05:27:33.759Z,21.33
2023-04-18T05:32:39.003Z,18.48
2023-04-18T05:37:43.134Z,19.35
2023-04-18T05:42:50.774Z,19.63
2023-04-18T05:47:55.043Z,19.35
2023-04-18T05:52:59.383Z,20.65
2023-04-18T05:58:04.307Z,19.88
2023-04-18T06:03:10.105Z,20.15
2023-04-18T06:08:14.505Z,19.98
2023-04-18T06:13:19.287Z,19.70
2023-04-18T06:18:22.766Z,20.08
2023-04-18T06:23:26.324Z,20.58
2023-04-18T06:28:31.512Z,19.23
2023-04-18T06:33:35.619Z,18.13
2023-04-18T06:38:39.017Z,19.02
2023-04-18T06:43:52.398Z,16.77
2023-04-18T06:49:03.029Z,17.55
2023-04-18T06:54:06.513Z,16.80
2023-04-18T06:59:11.578Z,17.42
2023-04-18T07:04:15.533Z,17.02
2023-04-18T07:09:19.852Z,17.33
2023-04-18T07:14:25.870Z,18.80
2023-04-18T07:19:29.692Z,17.40
2023-04-18T07:24:33.103Z,16.50
2023-04-18T07:29:37.919Z,15.60
2023-04-18T07:34:41.673Z,14.77
2023-04-18T07:39:45.161Z,14.15
2023-04-18T07:44:50.075Z,13.70
2023-04-18T07:49:53.648Z,13.77
2023-04-18T07:54:57.094Z,13.30
2023-04-18T08:00:01.888Z,13.38
2023-04-18T08:05:05.977Z,12.32
2023-04-18T08:10:10.240Z,11.40
2023-04-18T08:15:15.056Z,11.63
2023-04-18T08:20:18.756Z,11.93
2023-04-18T08:25:22.148Z,12.05
2023-04-18T08:30:27.079Z,11.35
2023-04-18T08:35:30.586Z,12.73
2023-04-18T08:40:34.059Z,12.23
2023-04-18T08:45:40.241Z,12.68
2023-04-18T08:50:44.550Z,12.45
2023-04-18T08:55:50.602Z,13.80
2023-04-18T09:00:56.323Z,12.98
2023-04-18T09:06:09.329Z,14.35
2023-04-18T09:16:29.268Z,14.33
2023-04-18T09:21:33.000Z,13.73
2023-04-18T09:26:37.077Z,13.48
2023-04-18T09:31:59.913Z,15.68
2023-04-18T09:37:07.815Z,13.67
2023-04-18T09:42:11.757Z,13.60
2023-04-18T09:47:16.490Z,14.25
2023-04-18T09:52:21.118Z,13.70
2023-04-18T09:57:28.863Z,14.48
2023-04-18T10:02:41.360Z,14.35
2023-04-18T10:07:47.444Z,14.37
2023-04-18T10:12:54.591Z,13.68
2023-04-18T10:18:05.692Z,12.63
2023-04-18T10:23:37.239Z,14.98
2023-04-18T10:28:54.530Z,17.48
2023-04-18T10:39:22.819Z,15.88
2023-04-18T10:44:27.104Z,16.92
2023-04-18T10:49:35.439Z,16.40
2023-04-18T10:54:42.813Z,15.98
2023-04-18T10:59:50.451Z,15.63
2023-04-18T11:04:57.057Z,16.98
2023-04-18T11:10:00.665Z,16.25
2023-04-18T11:15:10.999Z,15.10
2023-04-18T11:20:15.920Z,14.85
2023-04-18T11:25:24.401Z,15.10
2023-04-18T11:30:28.356Z,15.95
2023-04-18T11:35:38.637Z,16.02
2023-04-18T11:40:49.053Z,15.88
2023-04-18T11:45:54.254Z,16.95
2023-04-18T11:50:59.442Z,17.02
2023-04-18T11:56:03.811Z,16.98
2023-04-18T12:01:20.235Z,17.25
2023-04-18T12:06:25.208Z,19.15
2023-04-18T12:11:28.727Z,18.48
2023-04-18T12:16:33.875Z,19.70
2023-04-18T12:21:56.705Z,18.70
2023-04-18T12:27:00.355Z,19.37
2023-04-18T12:32:03.781Z,17.50
2023-04-18T12:37:09.393Z,17.38
2023-04-18T12:42:12.796Z,15.00
2023-04-18T12:47:16.538Z,15.85
2023-04-18T12:52:21.593Z,16.65
2023-04-18T12:57:25.613Z,16.95
2023-04-18T13:02:52.489Z,15.20
2023-04-18T13:13:04.016Z,14.60
2023-04-18T13:18:08.169Z,15.50
2023-04-18T13:23:13.039Z,15.32
2023-04-18T13:28:16.422Z,14.55
2023-04-18T13:33:19.940Z,16.00
2023-04-18T13:38:25.134Z,17.95
2023-04-18T13:43:28.675Z,15.60
2023-04-18T13:48:32.042Z,16.05
2023-04-18T13:53:37.045Z,20.92
2023-04-18T13:58:40.518Z,22.27
2023-04-18T14:03:44.612Z,22.30
2023-04-18T14:08:50.450Z,22.50
2023-04-18T14:13:54.113Z,21.40
2023-04-18T14:18:58.155Z,20.75
2023-04-18T14:24:03.670Z,20.02
2023-04-18T14:29:07.118Z,20.92
2023-04-18T14:34:10.530Z,19.40
2023-04-18T14:39:15.982Z,17.25
2023-04-18T14:44:19.488Z,17.38
2023-04-18T14:49:23.277Z,15.02
2023-04-18T14:54:28.941Z,14.57
2023-04-18T14:59:32.957Z,13.98
2023-04-18T15:04:36.446Z,13.07
2023-04-18T15:09:41.856Z,13.60
2023-04-18T15:14:45.326Z,13.45
2023-04-18T15:19:49.262Z,13.65
2023-04-18T15:24:54.060Z,15.32
2023-04-18T15:29:57.578Z,15.60
2023-04-18T15:35:01.117Z,14.70
2023-04-18T15:40:09.503Z,14.30
2023-04-18T15:45:13.282Z,13.52
2023-04-18T15:50:17.149Z,12.95
2023-04-18T15:55:22.261Z,16.67
2023-04-18T16:00:25.692Z,16.38
2023-04-18T16:05:29.479Z,16.77
2023-04-18T16:10:34.414Z,16.98
2023-04-18T16:15:41.524Z,18.20
2023-04-18T16:20:45.404Z,17.33
2023-04-18T16:25:51.147Z,17.63
2023-04-18T16:30:55.624Z,19.35
2023-04-18T16:35:59.917Z,17.48
2023-04-18T16:41:04.732Z,17.58
2023-04-18T16:46:09.272Z,18.45
2023-04-18T16:51:13.150Z,19.05
2023-04-18T16:56:18.166Z,20.02
2023-04-18T17:01:21.688Z,19.05
2023-04-18T17:06:25.191Z,19.63
2023-04-18T17:11:32.156Z,18.65
2023-04-18T17:16:39.447Z,19.23
2023-04-18T17:21:44.740Z,18.60
2023-04-18T17:26:50.452Z,19.98
2023-04-18T17:31:54.088Z,18.50
2023-04-18T17:36:57.612Z,18.95
2023-04-18T17:42:02.994Z,20.73
2023-04-18T17:47:06.727Z,20.13
2023-04-18T17:52:10.242Z,19.75
2023-04-18T17:57:15.056Z,21.15
2023-04-18T18:02:18.667Z,20.58
2023-04-18T18:07:22.318Z,21.05
2023-04-18T18:12:27.549Z,21.65
2023-04-18T18:17:31.050Z,20.15
2023-04-18T18:22:35.021Z,20.67
2023-04-18T18:27:40.762Z,20.30
2023-04-18T18:32:44.254Z,21.00
2023-04-18T18:37:48.017Z,18.83
2023-04-18T18:42:54.865Z,18.95
2023-04-18T18:47:58.481Z,18.50
2023-04-18T18:53:02.497Z,18.00
2023-04-18T18:58:08.022Z,18.20
2023-04-18T19:03:12.617Z,17.45
2023-04-18T19:08:16.375Z,17.98
2023-04-18T19:13:23.809Z,17.38
2023-04-18T19:18:27.523Z,17.98
2023-04-18T19:23:31.239Z,17.48
2023-04-18T19:28:36.282Z,18.08
2023-04-18T19:33:39.730Z,17.40
2023-04-18T19:38:43.127Z,17.42
2023-04-18T19:43:48.565Z,20.00
2023-04-18T19:48:52.279Z,19.50
2023-04-18T19:53:56.038Z,19.65
2023-04-18T19:59:01.706Z,20.48
2023-04-18T20:04:06.176Z,18.40
2023-04-18T20:09:15.286Z,19.20
2023-04-18T20:14:20.586Z,18.10
2023-04-18T20:19:25.777Z,17.80
2023-04-18T20:24:29.727Z,17.98
2023-04-18T20:29:34.849Z,17.85
2023-04-18T20:34:38.297Z,18.63
2023-04-18T20:39:42.114Z,18.15
2023-04-18T20:44:47.846Z,17.67
2023-04-18T20:49:51.401Z,19.20
2023-04-18T20:54:54.867Z,18.35
2023-04-18T20:59:59.867Z,18.40
2023-04-18T21:05:03.436Z,19.00
2023-04-18T21:10:07.958Z,17.25
2023-04-18T21:15:13.925Z,18.15
2023-04-18T21:20:17.687Z,16.02
2023-04-18T21:25:21.479Z,17.63
2023-04-18T21:30:26.795Z,18.15
2023-04-18T21:35:30.838Z,18.30
2023-04-18T21:40:34.627Z,17.15
2023-04-18T21:45:39.459Z,16.50
2023-04-18T21:50:43.711Z,17.27
2023-04-18T21:55:48.016Z,17.17
2023-04-18T22:00:53.129Z,17.80
2023-04-18T22:05:57.550Z,17.52
2023-04-18T22:11:01.618Z,17.27
2023-04-18T22:16:08.319Z,16.92
2023-04-18T22:21:11.937Z,16.48
2023-04-18T22:26:15.533Z,16.77
2023-04-18T22:31:20.610Z,15.93
2023-04-18T22:36:24.122Z,17.15
2023-04-18T22:41:27.544Z,17.33
2023-04-18T22:46:32.958Z,16.83
2023-04-18T22:51:36.538Z,14.95
2023-04-18T22:56:40.002Z,15.70
2023-04-18T23:01:44.897Z,14.73
2023-04-18T23:06:48.392Z,16.08
2023-04-18T23:11:52.019Z,14.40
2023-04-18T23:16:57.129Z,14.52
2023-04-18T23:22:00.990Z,14.35
2023-04-18T23:27:04.780Z,14.70
2023-04-18T23:32:09.577Z,14.60
2023-04-18T23:37:13.054Z,16.23
2023-04-18T23:42:16.464Z,15.20
2023-04-18T23:47:21.370Z,14.88
2023-04-18T23:52:25.584Z,15.05
2023-04-18T23:57:29.062Z,14.23
